sensor_id;sensor_type;location;lat;lon;timestamp;temperature;humidity
15844;DHT22;50807;52.436;13.346;2022-10-17T00:00:20;18.60;81.70
15844;DHT22;50807;52.436;13.346;2022-10-17T00:00:51;18.60;81.70
15844;DHT22;50807;52.436;13.346;2022-10-17T00:01:23;18.60;81.70
15844;DHT22;50807;52.436;13.346;2022-10-17T00:01:54;18.60;81.80
15844;DHT22;50807;52.436;13.346;2022-10-17T00:02:25;18.60;81.80
15844;DHT22;50807;52.436;13.346;2022-10-17T00:02:57;18.60;81.90
15844;DHT22;50807;52.436;13.346;2022-10-17T00:03:27;18.60;81.90
15844;DHT22;50807;52.436;13.346;2022-10-17T00:04:00;18.60;81.90
15844;DHT22;50807;52.436;13.346;2022-10-17T00:04:31;18.60;81.90
15844;DHT22;50807;52.436;13.346;2022-10-17T00:05:02;18.60;81.90
15844;DHT22;50807;52.436;13.346;2022-10-17T00:05:38;18.60;82.00
15844;DHT22;50807;52.436;13.346;2022-10-17T00:06:11;18.60;82.00
15844;DHT22;50807;52.436;13.346;2022-10-17T00:06:45;18.60;82.00
15844;DHT22;50807;52.436;13.346;2022-10-17T00:07:15;18.60;82.00
15844;DHT22;50807;52.436;13.346;2022-10-17T00:07:46;18.60;82.00
15844;DHT22;50807;52.436;13.346;2022-10-17T00:08:18;18.70;82.80
15844;DHT22;50807;52.436;13.346;2022-10-17T00:08:49;18.60;82.10
15844;DHT22;50807;52.436;13.346;2022-10-17T00:09:20;18.60;82.10
15844;DHT22;50807;52.436;13.346;2022-10-17T00:09:52;18.60;82.10
15844;DHT22;50807;52.436;13.346;2022-10-17T00:10:23;18.60;82.20
15844;DHT22;50807;52.436;13.346;2022-10-17T00:10:55;18.70;82.30
15844;DHT22;50807;52.436;13.346;2022-10-17T00:11:27;18.70;82.30
15844;DHT22;50807;52.436;13.346;2022-10-17T00:11:58;18.70;82.30
15844;DHT22;50807;52.436;13.346;2022-10-17T00:12:29;18.60;82.20
15844;DHT22;50807;52.436;13.346;2022-10-17T00:13:00;18.60;82.30
15844;DHT22;50807;52.436;13.346;2022-10-17T00:13:32;18.70;82.40
15844;DHT22;50807;52.436;13.346;2022-10-17T00:14:04;18.70;82.50
15844;DHT22;50807;52.436;13.346;2022-10-17T00:14:35;18.70;82.40
15844;DHT22;50807;52.436;13.346;2022-10-17T00:15:07;18.60;82.40
15844;DHT22;50807;52.436;13.346;2022-10-17T00:15:42;18.60;82.40
15844;DHT22;50807;52.436;13.346;2022-10-17T00:16:15;18.70;82.50
15844;DHT22;50807;52.436;13.346;2022-10-17T00:16:53;18.70;82.50
15844;DHT22;50807;52.436;13.346;2022-10-17T00:17:23;18.70;82.40
15844;DHT22;50807;52.436;13.346;2022-10-17T00:17:55;18.70;82.50
15844;DHT22;50807;52.436;13.346;2022-10-17T00:18:26;18.70;82.50
15844;DHT22;50807;52.436;13.346;2022-10-17T00:18:57;18.70;82.50
15844;DHT22;50807;52.436;13.346;2022-10-17T00:19:29;18.70;82.50
15844;DHT22;50807;52.436;13.346;2022-10-17T00:20:01;18.70;82.60
15844;DHT22;50807;52.436;13.346;2022-10-17T00:20:33;18.70;82.50
15844;DHT22;50807;52.436;13.346;2022-10-17T00:21:05;18.70;82.60
15844;DHT22;50807;52.436;13.346;2022-10-17T00:21:37;18.70;82.50
15844;DHT22;50807;52.436;13.346;2022-10-17T00:22:07;18.70;82.50
15844;DHT22;50807;52.436;13.346;2022-10-17T00:22:38;18.70;82.60
15844;DHT22;50807;52.436;13.346;2022-10-17T00:23:10;18.70;82.60
15844;DHT22;50807;52.436;13.346;2022-10-17T00:23:41;18.70;82.60
15844;DHT22;50807;52.436;13.346;2022-10-17T00:24:11;18.70;82.60
15844;DHT22;50807;52.436;13.346;2022-10-17T00:24:43;18.70;82.60
15844;DHT22;50807;52.436;13.346;2022-10-17T00:25:14;18.70;82.60
15844;DHT22;50807;52.436;13.346;2022-10-17T00:25:45;18.70;82.60
15844;DHT22;50807;52.436;13.346;2022-10-17T00:26:16;18.70;82.60
15844;DHT22;50807;52.436;13.346;2022-10-17T00:26:47;18.70;82.60
15844;DHT22;50807;52.436;13.346;2022-10-17T00:27:18;18.70;82.60
15844;DHT22;50807;52.436;13.346;2022-10-17T00:27:49;18.60;82.60
15844;DHT22;50807;52.436;13.346;2022-10-17T00:28:21;18.60;82.60
15844;DHT22;50807;52.436;13.346;2022-10-17T00:28:52;18.70;82.70
15844;DHT22;50807;52.436;13.346;2022-10-17T00:29:23;18.70;82.70
15844;DHT22;50807;52.436;13.346;2022-10-17T00:29:54;18.60;82.70
15844;DHT22;50807;52.436;13.346;2022-10-17T00:30:25;18.70;82.80
15844;DHT22;50807;52.436;13.346;2022-10-17T00:30:57;18.60;82.70
15844;DHT22;50807;52.436;13.346;2022-10-17T00:31:29;18.60;82.70
15844;DHT22;50807;52.436;13.346;2022-10-17T00:32:00;18.60;82.70
15844;DHT22;50807;52.436;13.346;2022-10-17T00:32:31;18.60;82.80
15844;DHT22;50807;52.436;13.346;2022-10-17T00:33:03;18.60;82.80
15844;DHT22;50807;52.436;13.346;2022-10-17T00:33:34;18.60;82.80
15844;DHT22;50807;52.436;13.346;2022-10-17T00:34:05;18.60;82.80
15844;DHT22;50807;52.436;13.346;2022-10-17T00:34:38;18.60;82.90
15844;DHT22;50807;52.436;13.346;2022-10-17T00:35:09;18.60;82.90
15844;DHT22;50807;52.436;13.346;2022-10-17T00:35:40;18.60;82.90
15844;DHT22;50807;52.436;13.346;2022-10-17T00:36:13;18.60;82.90
15844;DHT22;50807;52.436;13.346;2022-10-17T00:36:46;18.60;83.00
15844;DHT22;50807;52.436;13.346;2022-10-17T00:37:17;18.50;82.90
15844;DHT22;50807;52.436;13.346;2022-10-17T00:37:47;18.50;82.90
15844;DHT22;50807;52.436;13.346;2022-10-17T00:38:19;18.50;83.00
15844;DHT22;50807;52.436;13.346;2022-10-17T00:38:52;18.50;83.10
15844;DHT22;50807;52.436;13.346;2022-10-17T00:39:24;18.50;83.20
15844;DHT22;50807;52.436;13.346;2022-10-17T00:39:56;18.50;83.80
15844;DHT22;50807;52.436;13.346;2022-10-17T00:40:27;18.50;83.20
15844;DHT22;50807;52.436;13.346;2022-10-17T00:40:58;18.50;83.20
15844;DHT22;50807;52.436;13.346;2022-10-17T00:41:31;18.50;83.30
15844;DHT22;50807;52.436;13.346;2022-10-17T00:42:04;18.50;83.40
15844;DHT22;50807;52.436;13.346;2022-10-17T00:42:35;18.50;83.40
15844;DHT22;50807;52.436;13.346;2022-10-17T00:43:12;18.50;83.40
15844;DHT22;50807;52.436;13.346;2022-10-17T00:43:56;18.50;83.50
15844;DHT22;50807;52.436;13.346;2022-10-17T00:45:00;18.50;83.50
15844;DHT22;50807;52.436;13.346;2022-10-17T00:45:37;18.50;83.70
15844;DHT22;50807;52.436;13.346;2022-10-17T00:46:08;18.50;83.30
15844;DHT22;50807;52.436;13.346;2022-10-17T00:46:39;18.50;83.30
15844;DHT22;50807;52.436;13.346;2022-10-17T00:47:13;18.50;83.30
15844;DHT22;50807;52.436;13.346;2022-10-17T00:47:49;18.50;83.40
15844;DHT22;50807;52.436;13.346;2022-10-17T00:48:23;18.50;83.40
15844;DHT22;50807;52.436;13.346;2022-10-17T00:48:59;18.50;83.50
15844;DHT22;50807;52.436;13.346;2022-10-17T00:49:36;18.50;83.60
15844;DHT22;50807;52.436;13.346;2022-10-17T00:50:09;18.50;83.70
15844;DHT22;50807;52.436;13.346;2022-10-17T00:50:44;18.50;83.70
15844;DHT22;50807;52.436;13.346;2022-10-17T00:51:22;18.50;83.70
15844;DHT22;50807;52.436;13.346;2022-10-17T00:52:00;18.50;83.70
15844;DHT22;50807;52.436;13.346;2022-10-17T00:52:35;18.50;83.80
15844;DHT22;50807;52.436;13.346;2022-10-17T00:53:07;18.40;83.70
15844;DHT22;50807;52.436;13.346;2022-10-17T00:53:40;18.50;83.90
15844;DHT22;50807;52.436;13.346;2022-10-17T00:54:13;18.50;84.00
15844;DHT22;50807;52.436;13.346;2022-10-17T00:54:51;18.40;84.10
15844;DHT22;50807;52.436;13.346;2022-10-17T00:55:27;18.40;84.10
15844;DHT22;50807;52.436;13.346;2022-10-17T00:56:00;18.40;84.20
15844;DHT22;50807;52.436;13.346;2022-10-17T00:56:32;18.40;84.20
15844;DHT22;50807;52.436;13.346;2022-10-17T00:57:04;18.40;84.20
15844;DHT22;50807;52.436;13.346;2022-10-17T00:57:35;18.40;84.30
15844;DHT22;50807;52.436;13.346;2022-10-17T00:58:08;18.40;84.30
15844;DHT22;50807;52.436;13.346;2022-10-17T00:58:39;18.40;84.40
15844;DHT22;50807;52.436;13.346;2022-10-17T00:59:11;18.40;84.40
15844;DHT22;50807;52.436;13.346;2022-10-17T00:59:48;18.40;84.50
15844;DHT22;50807;52.436;13.346;2022-10-17T01:00:23;18.40;84.50
15844;DHT22;50807;52.436;13.346;2022-10-17T01:00:55;18.40;84.60
15844;DHT22;50807;52.436;13.346;2022-10-17T01:01:25;18.40;84.50
15844;DHT22;50807;52.436;13.346;2022-10-17T01:02:02;18.40;84.60
15844;DHT22;50807;52.436;13.346;2022-10-17T01:02:35;18.50;84.80
15844;DHT22;50807;52.436;13.346;2022-10-17T01:03:07;18.50;84.70
15844;DHT22;50807;52.436;13.346;2022-10-17T01:03:38;18.40;84.60
15844;DHT22;50807;52.436;13.346;2022-10-17T01:04:09;18.40;84.70
15844;DHT22;50807;52.436;13.346;2022-10-17T01:04:45;18.50;84.80
15844;DHT22;50807;52.436;13.346;2022-10-17T01:05:18;18.50;84.90
15844;DHT22;50807;52.436;13.346;2022-10-17T01:05:51;18.40;84.80
15844;DHT22;50807;52.436;13.346;2022-10-17T01:06:22;18.50;84.80
15844;DHT22;50807;52.436;13.346;2022-10-17T01:06:53;18.50;84.80
15844;DHT22;50807;52.436;13.346;2022-10-17T01:07:25;18.50;84.90
15844;DHT22;50807;52.436;13.346;2022-10-17T01:07:58;18.40;84.90
15844;DHT22;50807;52.436;13.346;2022-10-17T01:08:30;18.50;84.90
15844;DHT22;50807;52.436;13.346;2022-10-17T01:09:01;18.50;85.00
15844;DHT22;50807;52.436;13.346;2022-10-17T01:09:32;18.50;85.00
15844;DHT22;50807;52.436;13.346;2022-10-17T01:10:06;18.50;85.00
15844;DHT22;50807;52.436;13.346;2022-10-17T01:10:49;18.50;85.10
15844;DHT22;50807;52.436;13.346;2022-10-17T01:11:32;18.50;85.20
15844;DHT22;50807;52.436;13.346;2022-10-17T01:12:19;18.50;85.10
15844;DHT22;50807;52.436;13.346;2022-10-17T01:12:59;18.50;85.80
15844;DHT22;50807;52.436;13.346;2022-10-17T01:13:45;18.50;85.00
15844;DHT22;50807;52.436;13.346;2022-10-17T01:14:27;18.50;85.00
15844;DHT22;50807;52.436;13.346;2022-10-17T01:15:09;18.50;85.00
15844;DHT22;50807;52.436;13.346;2022-10-17T01:15:51;18.50;84.90
15844;DHT22;50807;52.436;13.346;2022-10-17T01:16:40;18.50;84.90
15844;DHT22;50807;52.436;13.346;2022-10-17T01:17:19;18.50;84.80
15844;DHT22;50807;52.436;13.346;2022-10-17T01:18:12;18.50;84.80
15844;DHT22;50807;52.436;13.346;2022-10-17T01:18:59;18.50;84.90
15844;DHT22;50807;52.436;13.346;2022-10-17T01:19:49;18.50;84.80
15844;DHT22;50807;52.436;13.346;2022-10-17T01:20:59;18.50;84.70
15844;DHT22;50807;52.436;13.346;2022-10-17T01:21:46;18.50;84.80
15844;DHT22;50807;52.436;13.346;2022-10-17T01:22:25;18.50;84.60
15844;DHT22;50807;52.436;13.346;2022-10-17T01:23:15;18.50;84.50
15844;DHT22;50807;52.436;13.346;2022-10-17T01:24:32;18.50;84.70
15844;DHT22;50807;52.436;13.346;2022-10-17T01:25:25;18.50;84.80
15844;DHT22;50807;52.436;13.346;2022-10-17T01:26:06;18.50;84.50
15844;DHT22;50807;52.436;13.346;2022-10-17T01:26:58;18.50;84.50
15844;DHT22;50807;52.436;13.346;2022-10-17T01:28:00;18.50;84.60
15844;DHT22;50807;52.436;13.346;2022-10-17T01:29:02;18.40;84.60
15844;DHT22;50807;52.436;13.346;2022-10-17T01:29:52;18.40;84.60
15844;DHT22;50807;52.436;13.346;2022-10-17T01:30:55;18.40;84.50
15844;DHT22;50807;52.436;13.346;2022-10-17T01:31:37;18.40;84.60
15844;DHT22;50807;52.436;13.346;2022-10-17T01:32:15;18.40;84.50
15844;DHT22;50807;52.436;13.346;2022-10-17T01:32:52;18.40;84.50
15844;DHT22;50807;52.436;13.346;2022-10-17T01:33:44;18.40;84.60
15844;DHT22;50807;52.436;13.346;2022-10-17T01:34:21;18.30;84.90
15844;DHT22;50807;52.436;13.346;2022-10-17T01:35:04;18.30;84.80
15844;DHT22;50807;52.436;13.346;2022-10-17T01:35:42;18.30;84.90
15844;DHT22;50807;52.436;13.346;2022-10-17T01:36:31;18.30;85.00
15844;DHT22;50807;52.436;13.346;2022-10-17T01:37:15;18.30;85.10
15844;DHT22;50807;52.436;13.346;2022-10-17T01:37:54;18.30;85.20
15844;DHT22;50807;52.436;13.346;2022-10-17T01:38:33;18.20;85.20
15844;DHT22;50807;52.436;13.346;2022-10-17T01:39:14;18.20;85.20
15844;DHT22;50807;52.436;13.346;2022-10-17T01:39:52;18.20;85.30
15844;DHT22;50807;52.436;13.346;2022-10-17T01:40:35;18.20;85.50
15844;DHT22;50807;52.436;13.346;2022-10-17T01:41:14;18.20;85.60
15844;DHT22;50807;52.436;13.346;2022-10-17T01:41:58;18.20;85.70
15844;DHT22;50807;52.436;13.346;2022-10-17T01:42:36;18.20;85.80
15844;DHT22;50807;52.436;13.346;2022-10-17T01:43:15;18.10;85.80
15844;DHT22;50807;52.436;13.346;2022-10-17T01:43:56;18.10;86.00
15844;DHT22;50807;52.436;13.346;2022-10-17T01:44:35;18.10;86.10
15844;DHT22;50807;52.436;13.346;2022-10-17T01:45:15;18.10;86.20
15844;DHT22;50807;52.436;13.346;2022-10-17T01:45:53;18.10;86.20
15844;DHT22;50807;52.436;13.346;2022-10-17T01:46:32;18.10;86.30
15844;DHT22;50807;52.436;13.346;2022-10-17T01:47:07;18.00;86.30
15844;DHT22;50807;52.436;13.346;2022-10-17T01:47:42;18.00;86.40
15844;DHT22;50807;52.436;13.346;2022-10-17T01:48:20;18.00;86.40
15844;DHT22;50807;52.436;13.346;2022-10-17T01:48:55;18.00;86.60
15844;DHT22;50807;52.436;13.346;2022-10-17T01:49:31;18.00;86.70
15844;DHT22;50807;52.436;13.346;2022-10-17T01:50:08;18.00;86.80
15844;DHT22;50807;52.436;13.346;2022-10-17T01:50:45;18.00;86.90
15844;DHT22;50807;52.436;13.346;2022-10-17T01:51:24;18.00;87.00
15844;DHT22;50807;52.436;13.346;2022-10-17T01:52:01;18.00;87.70
15844;DHT22;50807;52.436;13.346;2022-10-17T01:52:40;18.00;87.20
15844;DHT22;50807;52.436;13.346;2022-10-17T01:53:19;17.90;87.30
15844;DHT22;50807;52.436;13.346;2022-10-17T01:53:59;17.90;87.30
15844;DHT22;50807;52.436;13.346;2022-10-17T01:54:37;17.90;87.40
15844;DHT22;50807;52.436;13.346;2022-10-17T01:55:15;17.90;87.50
15844;DHT22;50807;52.436;13.346;2022-10-17T01:55:51;17.90;87.60
15844;DHT22;50807;52.436;13.346;2022-10-17T01:56:28;17.90;87.60
15844;DHT22;50807;52.436;13.346;2022-10-17T01:57:05;17.90;87.70
15844;DHT22;50807;52.436;13.346;2022-10-17T01:57:42;17.90;87.90
15844;DHT22;50807;52.436;13.346;2022-10-17T01:58:20;17.90;88.00
15844;DHT22;50807;52.436;13.346;2022-10-17T01:58:57;17.90;88.10
15844;DHT22;50807;52.436;13.346;2022-10-17T01:59:37;17.90;88.10
15844;DHT22;50807;52.436;13.346;2022-10-17T02:00:16;17.90;89.00
15844;DHT22;50807;52.436;13.346;2022-10-17T02:00:51;17.90;88.40
15844;DHT22;50807;52.436;13.346;2022-10-17T02:01:26;17.90;88.40
15844;DHT22;50807;52.436;13.346;2022-10-17T02:02:00;17.80;88.40
15844;DHT22;50807;52.436;13.346;2022-10-17T02:02:32;17.80;88.50
15844;DHT22;50807;52.436;13.346;2022-10-17T02:03:08;17.80;88.60
15844;DHT22;50807;52.436;13.346;2022-10-17T02:03:44;17.80;88.80
15844;DHT22;50807;52.436;13.346;2022-10-17T02:04:17;17.80;88.90
15844;DHT22;50807;52.436;13.346;2022-10-17T02:04:50;17.80;88.90
15844;DHT22;50807;52.436;13.346;2022-10-17T02:05:26;17.80;89.10
15844;DHT22;50807;52.436;13.346;2022-10-17T02:06:01;17.80;89.30
15844;DHT22;50807;52.436;13.346;2022-10-17T02:06:34;17.80;89.30
15844;DHT22;50807;52.436;13.346;2022-10-17T02:07:06;17.80;89.40
15844;DHT22;50807;52.436;13.346;2022-10-17T02:07:40;17.80;89.50
15844;DHT22;50807;52.436;13.346;2022-10-17T02:08:12;17.80;89.60
15844;DHT22;50807;52.436;13.346;2022-10-17T02:08:45;17.80;89.70
15844;DHT22;50807;52.436;13.346;2022-10-17T02:09:20;17.80;89.80
15844;DHT22;50807;52.436;13.346;2022-10-17T02:09:53;17.80;89.90
15844;DHT22;50807;52.436;13.346;2022-10-17T02:10:31;17.80;89.80
15844;DHT22;50807;52.436;13.346;2022-10-17T02:11:12;17.80;90.00
15844;DHT22;50807;52.436;13.346;2022-10-17T02:11:52;17.80;90.00
15844;DHT22;50807;52.436;13.346;2022-10-17T02:12:36;17.80;90.00
15844;DHT22;50807;52.436;13.346;2022-10-17T02:13:25;17.80;90.00
15844;DHT22;50807;52.436;13.346;2022-10-17T02:14:18;17.80;90.00
15844;DHT22;50807;52.436;13.346;2022-10-17T02:15:07;17.80;90.00
15844;DHT22;50807;52.436;13.346;2022-10-17T02:16:05;17.80;90.00
15844;DHT22;50807;52.436;13.346;2022-10-17T02:16:51;17.80;90.00
15844;DHT22;50807;52.436;13.346;2022-10-17T02:17:39;17.80;90.00
15844;DHT22;50807;52.436;13.346;2022-10-17T02:18:20;17.80;90.00
15844;DHT22;50807;52.436;13.346;2022-10-17T02:19:16;17.80;90.00
15844;DHT22;50807;52.436;13.346;2022-10-17T02:20:22;17.80;90.00
15844;DHT22;50807;52.436;13.346;2022-10-17T02:20:59;17.80;90.00
15844;DHT22;50807;52.436;13.346;2022-10-17T02:21:41;17.80;90.00
15844;DHT22;50807;52.436;13.346;2022-10-17T02:22:26;17.80;90.10
15844;DHT22;50807;52.436;13.346;2022-10-17T02:23:10;17.80;90.10
15844;DHT22;50807;52.436;13.346;2022-10-17T02:23:53;17.80;90.20
15844;DHT22;50807;52.436;13.346;2022-10-17T02:24:39;17.80;90.20
15844;DHT22;50807;52.436;13.346;2022-10-17T02:25:22;17.80;90.20
15844;DHT22;50807;52.436;13.346;2022-10-17T02:26:07;17.80;90.20
15844;DHT22;50807;52.436;13.346;2022-10-17T02:26:45;17.80;90.20
15844;DHT22;50807;52.436;13.346;2022-10-17T02:27:31;17.80;90.30
15844;DHT22;50807;52.436;13.346;2022-10-17T02:28:18;17.80;90.40
15844;DHT22;50807;52.436;13.346;2022-10-17T02:28:59;17.80;90.50
15844;DHT22;50807;52.436;13.346;2022-10-17T02:29:47;17.80;90.50
15844;DHT22;50807;52.436;13.346;2022-10-17T02:30:30;17.80;90.50
15844;DHT22;50807;52.436;13.346;2022-10-17T02:31:09;17.80;90.60
15844;DHT22;50807;52.436;13.346;2022-10-17T02:31:48;17.80;90.50
15844;DHT22;50807;52.436;13.346;2022-10-17T02:32:30;17.80;90.60
15844;DHT22;50807;52.436;13.346;2022-10-17T02:33:06;17.80;90.70
15844;DHT22;50807;52.436;13.346;2022-10-17T02:33:44;17.80;90.80
15844;DHT22;50807;52.436;13.346;2022-10-17T02:34:24;17.80;90.80
15844;DHT22;50807;52.436;13.346;2022-10-17T02:35:00;17.70;90.90
15844;DHT22;50807;52.436;13.346;2022-10-17T02:35:37;17.70;90.90
15844;DHT22;50807;52.436;13.346;2022-10-17T02:36:14;17.70;91.00
15844;DHT22;50807;52.436;13.346;2022-10-17T02:36:51;17.70;91.10
15844;DHT22;50807;52.436;13.346;2022-10-17T02:37:27;17.70;91.10
15844;DHT22;50807;52.436;13.346;2022-10-17T02:38:01;17.70;91.20
15844;DHT22;50807;52.436;13.346;2022-10-17T02:38:34;17.70;91.20
15844;DHT22;50807;52.436;13.346;2022-10-17T02:39:07;17.70;91.20
15844;DHT22;50807;52.436;13.346;2022-10-17T02:39:39;17.70;91.30
15844;DHT22;50807;52.436;13.346;2022-10-17T02:40:14;17.70;91.30
15844;DHT22;50807;52.436;13.346;2022-10-17T02:40:49;17.70;91.50
15844;DHT22;50807;52.436;13.346;2022-10-17T02:41:23;17.70;91.50
15844;DHT22;50807;52.436;13.346;2022-10-17T02:41:58;17.70;91.50
15844;DHT22;50807;52.436;13.346;2022-10-17T02:42:34;17.70;91.60
15844;DHT22;50807;52.436;13.346;2022-10-17T02:43:05;17.70;91.60
15844;DHT22;50807;52.436;13.346;2022-10-17T02:43:38;17.70;91.70
15844;DHT22;50807;52.436;13.346;2022-10-17T02:44:14;17.70;91.80
15844;DHT22;50807;52.436;13.346;2022-10-17T02:44:46;17.70;91.80
15844;DHT22;50807;52.436;13.346;2022-10-17T02:45:18;17.70;91.80
15844;DHT22;50807;52.436;13.346;2022-10-17T02:45:52;17.70;91.90
15844;DHT22;50807;52.436;13.346;2022-10-17T02:46:23;17.70;91.90
15844;DHT22;50807;52.436;13.346;2022-10-17T02:47:04;17.70;92.00
15844;DHT22;50807;52.436;13.346;2022-10-17T02:47:48;17.70;92.10
15844;DHT22;50807;52.436;13.346;2022-10-17T02:48:26;17.70;92.20
15844;DHT22;50807;52.436;13.346;2022-10-17T02:49:06;17.70;92.10
15844;DHT22;50807;52.436;13.346;2022-10-17T02:49:46;17.70;92.20
15844;DHT22;50807;52.436;13.346;2022-10-17T02:50:25;17.80;92.20
15844;DHT22;50807;52.436;13.346;2022-10-17T02:51:05;17.80;92.30
15844;DHT22;50807;52.436;13.346;2022-10-17T02:51:44;17.80;92.30
15844;DHT22;50807;52.436;13.346;2022-10-17T02:52:25;17.80;92.30
15844;DHT22;50807;52.436;13.346;2022-10-17T02:53:04;17.80;92.40
15844;DHT22;50807;52.436;13.346;2022-10-17T02:53:43;17.80;92.40
15844;DHT22;50807;52.436;13.346;2022-10-17T02:54:22;17.80;92.40
15844;DHT22;50807;52.436;13.346;2022-10-17T02:55:06;17.80;92.40
15844;DHT22;50807;52.436;13.346;2022-10-17T02:55:47;17.80;92.50
15844;DHT22;50807;52.436;13.346;2022-10-17T02:56:25;17.80;92.50
15844;DHT22;50807;52.436;13.346;2022-10-17T02:57:02;17.80;92.50
15844;DHT22;50807;52.436;13.346;2022-10-17T02:57:40;17.80;92.50
15844;DHT22;50807;52.436;13.346;2022-10-17T02:58:18;17.80;92.60
15844;DHT22;50807;52.436;13.346;2022-10-17T02:58:56;17.80;92.60
15844;DHT22;50807;52.436;13.346;2022-10-17T02:59:29;17.80;92.70
15844;DHT22;50807;52.436;13.346;2022-10-17T03:00:07;17.80;92.70
15844;DHT22;50807;52.436;13.346;2022-10-17T03:00:41;17.80;92.70
15844;DHT22;50807;52.436;13.346;2022-10-17T03:01:13;17.80;92.70
15844;DHT22;50807;52.436;13.346;2022-10-17T03:01:47;17.80;92.80
15844;DHT22;50807;52.436;13.346;2022-10-17T03:02:20;17.80;92.90
15844;DHT22;50807;52.436;13.346;2022-10-17T03:02:52;17.80;92.90
15844;DHT22;50807;52.436;13.346;2022-10-17T03:03:26;17.80;93.00
15844;DHT22;50807;52.436;13.346;2022-10-17T03:04:10;17.80;93.10
15844;DHT22;50807;52.436;13.346;2022-10-17T03:04:43;17.80;93.20
15844;DHT22;50807;52.436;13.346;2022-10-17T03:05:17;17.80;93.10
15844;DHT22;50807;52.436;13.346;2022-10-17T03:05:50;17.80;93.20
15844;DHT22;50807;52.436;13.346;2022-10-17T03:06:21;17.80;93.20
15844;DHT22;50807;52.436;13.346;2022-10-17T03:06:53;17.90;93.30
15844;DHT22;50807;52.436;13.346;2022-10-17T03:07:24;17.90;93.30
15844;DHT22;50807;52.436;13.346;2022-10-17T03:07:55;17.90;93.40
15844;DHT22;50807;52.436;13.346;2022-10-17T03:08:27;17.90;93.50
15844;DHT22;50807;52.436;13.346;2022-10-17T03:08:58;17.90;93.50
15844;DHT22;50807;52.436;13.346;2022-10-17T03:09:28;17.90;93.60
15844;DHT22;50807;52.436;13.346;2022-10-17T03:09:59;17.90;93.70
15844;DHT22;50807;52.436;13.346;2022-10-17T03:10:31;17.90;93.70
15844;DHT22;50807;52.436;13.346;2022-10-17T03:11:01;17.90;93.80
15844;DHT22;50807;52.436;13.346;2022-10-17T03:11:32;17.90;93.80
15844;DHT22;50807;52.436;13.346;2022-10-17T03:12:04;17.90;93.90
15844;DHT22;50807;52.436;13.346;2022-10-17T03:12:35;17.90;93.90
15844;DHT22;50807;52.436;13.346;2022-10-17T03:13:06;17.90;94.00
15844;DHT22;50807;52.436;13.346;2022-10-17T03:13:38;17.90;94.00
15844;DHT22;50807;52.436;13.346;2022-10-17T03:14:08;18.00;94.10
15844;DHT22;50807;52.436;13.346;2022-10-17T03:14:39;17.90;94.10
15844;DHT22;50807;52.436;13.346;2022-10-17T03:15:12;18.00;94.50
15844;DHT22;50807;52.436;13.346;2022-10-17T03:15:43;18.00;94.20
15844;DHT22;50807;52.436;13.346;2022-10-17T03:16:14;18.00;94.30
15844;DHT22;50807;52.436;13.346;2022-10-17T03:16:46;18.00;94.30
15844;DHT22;50807;52.436;13.346;2022-10-17T03:17:17;18.00;94.30
15844;DHT22;50807;52.436;13.346;2022-10-17T03:17:49;18.00;94.40
15844;DHT22;50807;52.436;13.346;2022-10-17T03:18:20;18.00;94.40
15844;DHT22;50807;52.436;13.346;2022-10-17T03:18:51;18.00;94.40
15844;DHT22;50807;52.436;13.346;2022-10-17T03:19:22;18.00;94.50
15844;DHT22;50807;52.436;13.346;2022-10-17T03:19:54;18.00;94.50
15844;DHT22;50807;52.436;13.346;2022-10-17T03:20:25;18.00;94.60
15844;DHT22;50807;52.436;13.346;2022-10-17T03:20:55;18.10;94.90
15844;DHT22;50807;52.436;13.346;2022-10-17T03:21:26;18.10;94.60
15844;DHT22;50807;52.436;13.346;2022-10-17T03:21:58;18.10;94.70
15844;DHT22;50807;52.436;13.346;2022-10-17T03:22:29;18.10;94.70
15844;DHT22;50807;52.436;13.346;2022-10-17T03:23:00;18.10;94.70
15844;DHT22;50807;52.436;13.346;2022-10-17T03:23:31;18.10;94.80
15844;DHT22;50807;52.436;13.346;2022-10-17T03:24:03;18.10;95.10
15844;DHT22;50807;52.436;13.346;2022-10-17T03:24:34;18.10;94.80
15844;DHT22;50807;52.436;13.346;2022-10-17T03:25:06;18.20;94.90
15844;DHT22;50807;52.436;13.346;2022-10-17T03:25:37;18.20;94.90
15844;DHT22;50807;52.436;13.346;2022-10-17T03:26:09;18.10;94.90
15844;DHT22;50807;52.436;13.346;2022-10-17T03:26:39;18.20;94.90
15844;DHT22;50807;52.436;13.346;2022-10-17T03:27:11;18.10;94.90
15844;DHT22;50807;52.436;13.346;2022-10-17T03:27:42;18.20;95.00
15844;DHT22;50807;52.436;13.346;2022-10-17T03:28:13;18.20;95.00
15844;DHT22;50807;52.436;13.346;2022-10-17T03:28:43;18.20;95.00
15844;DHT22;50807;52.436;13.346;2022-10-17T03:29:15;18.20;95.00
15844;DHT22;50807;52.436;13.346;2022-10-17T03:29:46;18.20;95.10
15844;DHT22;50807;52.436;13.346;2022-10-17T03:30:17;18.20;95.10
15844;DHT22;50807;52.436;13.346;2022-10-17T03:30:49;18.20;95.10
15844;DHT22;50807;52.436;13.346;2022-10-17T03:31:21;18.20;95.10
15844;DHT22;50807;52.436;13.346;2022-10-17T03:31:52;18.20;95.20
15844;DHT22;50807;52.436;13.346;2022-10-17T03:32:22;18.20;95.20
15844;DHT22;50807;52.436;13.346;2022-10-17T03:32:56;18.20;95.20
15844;DHT22;50807;52.436;13.346;2022-10-17T03:33:27;18.20;95.20
15844;DHT22;50807;52.436;13.346;2022-10-17T03:33:57;18.20;95.20
15844;DHT22;50807;52.436;13.346;2022-10-17T03:34:29;18.30;95.20
15844;DHT22;50807;52.436;13.346;2022-10-17T03:35:00;18.20;95.20
15844;DHT22;50807;52.436;13.346;2022-10-17T03:35:31;18.30;95.30
15844;DHT22;50807;52.436;13.346;2022-10-17T03:36:06;18.30;95.30
15844;DHT22;50807;52.436;13.346;2022-10-17T03:36:38;18.30;95.40
15844;DHT22;50807;52.436;13.346;2022-10-17T03:37:09;18.30;95.30
15844;DHT22;50807;52.436;13.346;2022-10-17T03:37:41;18.30;95.30
15844;DHT22;50807;52.436;13.346;2022-10-17T03:38:11;18.30;95.30
15844;DHT22;50807;52.436;13.346;2022-10-17T03:38:42;18.30;95.40
15844;DHT22;50807;52.436;13.346;2022-10-17T03:39:15;18.30;95.40
15844;DHT22;50807;52.436;13.346;2022-10-17T03:39:46;18.30;95.40
15844;DHT22;50807;52.436;13.346;2022-10-17T03:40:16;18.30;95.40
15844;DHT22;50807;52.436;13.346;2022-10-17T03:40:53;18.30;95.40
15844;DHT22;50807;52.436;13.346;2022-10-17T03:41:24;18.30;95.50
15844;DHT22;50807;52.436;13.346;2022-10-17T03:41:56;18.30;95.50
15844;DHT22;50807;52.436;13.346;2022-10-17T03:42:27;18.30;95.50
15844;DHT22;50807;52.436;13.346;2022-10-17T03:42:57;18.30;95.50
15844;DHT22;50807;52.436;13.346;2022-10-17T03:43:29;18.30;95.50